Kirkby-in-Ashfield, United Kingdom
Current Conditions -  °F | °C
As of 7:50 AM on Tuesday 21 Oct 2014 (Local Time) from EGNX Reporting Station
Light Rain Light Rain  
Wind Chill: 52°   Ceiling: 1800
Heat Index: 52°   Visibility: 4mi
Dew Point: 50°   Wind: 23mph
Humidity: 94%   Direction: 280°W
Pressure: 29.44"   Gusts: NA
Location:  53.1°N, 1.26°W
Report Text: EGNX 210650Z 28020KT 7000 -RA FEW008 SCT012 BKN018 11/10 Q0997 RERA
Loading
Personal Weather Stations






























Interactive Weather Map
Tropical Storm Tracking
New forecast layout! Learn more

10-Day Weather Forecast

Advertisements
Track Severe Weather on mobile